createdAt,value
2017-12-30T00:01:30.950Z,6.35
2017-12-30T00:03:58.342Z,6.47
2017-12-30T00:06:25.735Z,5.07
2017-12-30T00:08:53.180Z,6.47
2017-12-30T00:11:20.566Z,5.20
2017-12-30T00:13:47.950Z,6.03
2017-12-30T00:16:16.138Z,6.50
2017-12-30T00:18:43.523Z,6.60
2017-12-30T00:21:10.918Z,6.60
2017-12-30T00:23:38.312Z,5.50
2017-12-30T00:26:05.678Z,6.03
2017-12-30T00:28:33.078Z,6.20
2017-12-30T00:31:00.470Z,5.33
2017-12-30T00:33:27.854Z,5.70
2017-12-30T00:35:55.238Z,6.50
2017-12-30T00:38:22.631Z,5.43
2017-12-30T00:40:50.003Z,6.63
2017-12-30T00:43:17.391Z,6.27
2017-12-30T00:45:44.773Z,6.50
2017-12-30T00:48:12.162Z,5.17
2017-12-30T00:50:39.623Z,6.37
2017-12-30T00:53:06.946Z,7.13
2017-12-30T00:55:34.326Z,6.00
2017-12-30T00:58:01.714Z,6.43
2017-12-30T01:00:29.105Z,6.67
2017-12-30T01:02:56.486Z,6.93
2017-12-30T01:05:23.875Z,6.00
2017-12-30T01:07:51.253Z,6.73
2017-12-30T01:10:18.646Z,7.83
2017-12-30T01:12:46.024Z,6.93
2017-12-30T01:15:13.413Z,7.60
2017-12-30T01:17:40.799Z,7.47
2017-12-30T01:20:08.188Z,7.20
2017-12-30T01:22:35.562Z,8.00
2017-12-30T01:25:02.954Z,7.93
2017-12-30T01:27:30.434Z,8.43
2017-12-30T01:29:58.016Z,8.50
2017-12-30T01:32:25.508Z,10.43
2017-12-30T01:34:52.901Z,10.13
2017-12-30T01:37:20.299Z,10.30
2017-12-30T01:39:47.693Z,10.70
2017-12-30T01:42:15.094Z,11.50
2017-12-30T01:44:42.493Z,10.63
2017-12-30T01:47:09.881Z,10.87
2017-12-30T01:49:37.277Z,13.93
2017-12-30T01:52:04.668Z,12.97
2017-12-30T01:54:32.072Z,12.40
2017-12-30T01:56:59.455Z,12.90
2017-12-30T01:59:26.846Z,14.43
2017-12-30T02:01:54.239Z,14.20
2017-12-30T02:04:21.641Z,14.07
2017-12-30T02:06:49.035Z,16.00
2017-12-30T02:09:16.431Z,15.83
2017-12-30T02:11:43.826Z,16.30
2017-12-30T02:14:11.226Z,15.27
2017-12-30T02:16:38.622Z,17.07
2017-12-30T02:19:06.060Z,17.97
2017-12-30T02:21:33.451Z,16.20
2017-12-30T02:24:00.880Z,16.40
2017-12-30T02:26:28.270Z,17.10
2017-12-30T02:28:55.662Z,16.10
2017-12-30T02:31:23.056Z,16.50
2017-12-30T02:33:50.454Z,15.87
2017-12-30T02:36:17.850Z,16.97
2017-12-30T02:38:45.254Z,18.33
2017-12-30T02:41:12.647Z,16.00
2017-12-30T02:43:40.044Z,17.30
2017-12-30T02:46:07.438Z,18.53
2017-12-30T02:48:34.910Z,16.00
2017-12-30T02:51:02.310Z,17.63
2017-12-30T02:53:29.706Z,17.53
2017-12-30T02:55:57.087Z,19.77
2017-12-30T02:58:24.590Z,18.00
2017-12-30T03:00:51.977Z,19.90
2017-12-30T03:03:19.374Z,19.00
2017-12-30T03:05:46.774Z,18.40
2017-12-30T03:08:14.169Z,18.97
2017-12-30T03:10:41.668Z,18.80
2017-12-30T03:13:09.058Z,19.63
2017-12-30T03:15:36.462Z,18.37
2017-12-30T03:18:03.854Z,18.63
2017-12-30T03:20:31.252Z,18.93
2017-12-30T03:22:58.647Z,18.90
2017-12-30T03:25:26.050Z,19.60
2017-12-30T03:27:53.439Z,18.50
2017-12-30T03:30:20.839Z,20.60
2017-12-30T03:32:48.231Z,19.20
2017-12-30T03:35:15.630Z,19.30
2017-12-30T03:37:43.019Z,17.60
2017-12-30T03:40:10.412Z,18.00
2017-12-30T03:42:37.810Z,18.97
2017-12-30T03:45:05.234Z,17.13
2017-12-30T03:47:32.697Z,20.07
2017-12-30T03:50:00.098Z,18.00
2017-12-30T03:52:27.494Z,18.10
2017-12-30T03:54:54.887Z,18.10
2017-12-30T03:57:22.282Z,17.40
2017-12-30T03:59:49.680Z,17.87
2017-12-30T04:02:17.077Z,19.50
2017-12-30T04:04:44.474Z,19.90
2017-12-30T04:07:11.871Z,18.57
2017-12-30T04:09:39.271Z,18.47
2017-12-30T04:12:06.658Z,19.83
2017-12-30T04:14:34.059Z,19.03
2017-12-30T04:17:01.446Z,19.73
2017-12-30T04:19:28.834Z,17.90
2017-12-30T04:21:56.231Z,18.10
2017-12-30T04:24:23.637Z,19.90
2017-12-30T04:29:24.958Z,20.30
2017-12-30T04:31:52.354Z,18.43
2017-12-30T04:34:19.751Z,19.30
2017-12-30T04:36:47.152Z,19.10
2017-12-30T04:39:14.554Z,17.07
2017-12-30T04:41:41.948Z,15.93
2017-12-30T04:44:09.338Z,17.30
2017-12-30T04:46:36.729Z,18.10
2017-12-30T04:49:04.226Z,19.37
2017-12-30T04:51:31.613Z,19.97
2017-12-30T04:53:59.014Z,17.70
2017-12-30T04:56:26.400Z,17.20
2017-12-30T04:58:53.798Z,16.10
2017-12-30T05:01:21.177Z,15.97
2017-12-30T05:03:48.582Z,16.93
2017-12-30T05:06:15.986Z,15.23
2017-12-30T05:08:43.378Z,16.67
2017-12-30T05:11:10.766Z,15.33
2017-12-30T05:13:38.165Z,14.73
2017-12-30T05:16:05.557Z,16.63
2017-12-30T05:18:32.955Z,14.70
2017-12-30T05:21:00.354Z,15.10
2017-12-30T05:23:27.748Z,12.30
2017-12-30T05:25:55.142Z,13.10
2017-12-30T05:28:22.529Z,13.07
2017-12-30T05:30:49.927Z,13.20
2017-12-30T05:33:17.326Z,10.93
2017-12-30T05:35:44.727Z,12.33
2017-12-30T05:38:12.223Z,11.90
2017-12-30T05:40:39.682Z,11.43
2017-12-30T05:43:07.073Z,10.60
2017-12-30T05:45:34.466Z,11.20
2017-12-30T05:48:01.851Z,9.93
2017-12-30T05:50:29.259Z,8.73
2017-12-30T05:52:56.647Z,9.60
2017-12-30T05:55:24.034Z,9.57
2017-12-30T05:57:51.429Z,9.33
2017-12-30T06:00:18.824Z,8.10
2017-12-30T06:02:46.270Z,9.07
2017-12-30T06:05:13.660Z,7.53
2017-12-30T06:07:41.043Z,7.60
2017-12-30T06:10:08.554Z,6.67
2017-12-30T06:12:35.942Z,7.33
2017-12-30T06:15:03.329Z,7.53
2017-12-30T06:17:30.716Z,7.27
2017-12-30T06:19:58.111Z,6.20
2017-12-30T06:22:25.490Z,8.77
2017-12-30T06:24:52.891Z,7.50
2017-12-30T06:27:20.274Z,6.43
2017-12-30T06:29:47.670Z,7.50
2017-12-30T06:32:15.054Z,6.75
2017-12-30T06:34:42.451Z,6.00
2017-12-30T06:37:09.837Z,6.70
2017-12-30T06:39:37.231Z,4.90
2017-12-30T06:42:04.623Z,5.13
2017-12-30T06:44:32.010Z,5.90
2017-12-30T06:46:59.398Z,4.77
2017-12-30T06:49:26.795Z,5.70
2017-12-30T06:51:54.183Z,5.13
2017-12-30T06:54:21.578Z,4.90
2017-12-30T06:56:48.959Z,4.80
2017-12-30T06:59:16.354Z,4.60
2017-12-30T07:01:43.729Z,4.40
2017-12-30T07:04:11.152Z,4.33
2017-12-30T07:06:38.558Z,3.97
2017-12-30T07:09:05.953Z,4.00
2017-12-30T07:11:33.339Z,3.50
2017-12-30T07:14:00.758Z,4.23
2017-12-30T07:16:28.151Z,4.03
2017-12-30T07:18:55.569Z,3.03
2017-12-30T07:21:22.970Z,3.37
2017-12-30T07:23:50.363Z,4.20
2017-12-30T07:26:17.791Z,3.60
2017-12-30T07:28:45.159Z,4.07
2017-12-30T07:31:12.559Z,4.23
2017-12-30T07:33:39.945Z,3.43
2017-12-30T07:36:07.337Z,3.60
2017-12-30T07:38:34.723Z,3.30
2017-12-30T07:41:02.118Z,3.80
2017-12-30T07:43:29.542Z,4.33
2017-12-30T07:45:56.930Z,4.50
2017-12-30T07:48:24.318Z,3.50
2017-12-30T07:50:51.705Z,4.37
2017-12-30T07:53:19.127Z,5.30
2017-12-30T07:55:46.511Z,4.20
2017-12-30T07:58:13.903Z,4.63
2017-12-30T08:00:41.298Z,5.73
2017-12-30T08:03:08.691Z,4.40
2017-12-30T08:05:36.081Z,5.90
2017-12-30T08:08:03.467Z,4.70
2017-12-30T08:10:30.865Z,4.27
2017-12-30T08:12:58.287Z,5.20
2017-12-30T08:15:28.997Z,4.83
2017-12-30T08:17:56.853Z,4.63
2017-12-30T08:20:24.264Z,5.57
2017-12-30T08:22:51.662Z,5.57
2017-12-30T08:25:19.050Z,4.63
2017-12-30T08:27:46.439Z,4.60
2017-12-30T08:30:13.830Z,4.37
2017-12-30T08:32:41.227Z,3.97
2017-12-30T08:35:08.634Z,3.67
2017-12-30T08:37:36.014Z,3.70
2017-12-30T08:40:03.418Z,4.13
2017-12-30T08:42:30.800Z,4.67
2017-12-30T08:44:58.198Z,5.07
2017-12-30T08:47:25.582Z,4.20
2017-12-30T08:49:52.979Z,5.03
2017-12-30T08:52:20.365Z,4.90
2017-12-30T08:54:47.758Z,4.63
2017-12-30T08:57:15.138Z,4.60
2017-12-30T08:59:42.526Z,5.40
2017-12-30T09:02:09.919Z,4.10
2017-12-30T09:04:37.374Z,3.50
2017-12-30T09:07:04.767Z,4.27
2017-12-30T09:09:32.159Z,4.60
2017-12-30T09:11:59.542Z,4.50
2017-12-30T09:14:26.934Z,3.23
2017-12-30T09:16:54.314Z,4.27
2017-12-30T09:19:21.707Z,3.10
2017-12-30T09:21:49.087Z,3.60
2017-12-30T09:24:16.470Z,3.60
2017-12-30T09:26:44.006Z,3.33
2017-12-30T09:29:12.077Z,4.17
2017-12-30T09:31:39.471Z,3.40
2017-12-30T09:34:06.855Z,3.93
2017-12-30T09:36:34.237Z,3.70
2017-12-30T09:39:01.715Z,3.67
2017-12-30T09:41:29.112Z,3.60
2017-12-30T09:43:56.503Z,3.30
2017-12-30T09:46:23.898Z,3.40
2017-12-30T09:48:51.275Z,2.10
2017-12-30T09:51:18.670Z,2.77
2017-12-30T09:53:46.157Z,3.70
2017-12-30T09:56:13.572Z,3.23
2017-12-30T09:58:40.945Z,2.97
2017-12-30T10:01:08.383Z,3.10
2017-12-30T10:03:35.782Z,3.50
2017-12-30T10:06:03.170Z,2.70
2017-12-30T10:08:30.574Z,2.90
2017-12-30T10:10:57.958Z,3.47
2017-12-30T10:13:25.345Z,2.80
2017-12-30T10:15:52.755Z,3.93
2017-12-30T10:18:20.133Z,2.63
2017-12-30T10:20:47.541Z,3.70
2017-12-30T10:23:14.923Z,3.20
2017-12-30T10:25:42.321Z,4.30
2017-12-30T10:28:09.706Z,3.30
2017-12-30T10:30:37.091Z,2.60
2017-12-30T10:33:04.476Z,2.93
2017-12-30T10:35:31.858Z,3.27
2017-12-30T10:37:59.248Z,2.53
2017-12-30T10:40:26.691Z,3.93
2017-12-30T10:42:54.078Z,2.73
2017-12-30T10:45:21.493Z,2.50
2017-12-30T10:47:48.864Z,1.97
2017-12-30T10:50:16.250Z,2.17
2017-12-30T10:52:43.634Z,2.50
2017-12-30T10:55:11.054Z,1.53
2017-12-30T10:57:38.417Z,2.20
2017-12-30T11:00:05.860Z,2.10
2017-12-30T11:02:33.243Z,2.30
2017-12-30T11:05:00.645Z,2.57
2017-12-30T11:07:28.034Z,2.17
2017-12-30T11:09:55.431Z,2.30
2017-12-30T11:12:22.829Z,2.17
2017-12-30T11:14:50.218Z,2.20
2017-12-30T11:17:17.606Z,2.43
2017-12-30T11:19:44.987Z,1.80
2017-12-30T11:22:12.390Z,2.20
2017-12-30T11:24:39.778Z,2.30
2017-12-30T11:27:07.179Z,2.47
2017-12-30T11:29:34.552Z,2.30
2017-12-30T11:32:01.952Z,3.40
2017-12-30T11:34:29.330Z,2.23
2017-12-30T11:36:56.714Z,1.73
2017-12-30T11:39:24.089Z,2.10
2017-12-30T11:41:51.475Z,3.33
2017-12-30T11:44:18.862Z,2.50
2017-12-30T11:46:46.258Z,2.47
2017-12-30T11:49:13.639Z,3.53
2017-12-30T11:51:41.021Z,2.10
2017-12-30T11:54:08.414Z,5.43
2017-12-30T11:56:35.896Z,3.73
2017-12-30T11:59:03.286Z,3.07
2017-12-30T12:01:31.484Z,3.20
2017-12-30T12:03:58.846Z,2.90
2017-12-30T12:06:26.239Z,3.20
2017-12-30T12:08:53.618Z,4.43
2017-12-30T12:11:21.145Z,3.33
2017-12-30T12:13:48.526Z,2.37
2017-12-30T12:16:15.918Z,3.17
2017-12-30T12:18:43.317Z,3.60
2017-12-30T12:21:10.689Z,2.27
2017-12-30T12:23:38.070Z,2.63
2017-12-30T12:26:05.479Z,3.27
2017-12-30T12:28:32.849Z,4.90
2017-12-30T12:31:00.250Z,4.13
2017-12-30T12:33:27.633Z,3.90
2017-12-30T12:35:55.026Z,3.63
2017-12-30T12:38:22.413Z,3.30
2017-12-30T12:40:49.786Z,3.77
2017-12-30T12:43:17.174Z,4.63
2017-12-30T12:45:44.558Z,2.57
2017-12-30T12:48:11.950Z,3.20
2017-12-30T12:50:39.340Z,4.47
2017-12-30T12:53:06.735Z,3.00
2017-12-30T12:55:34.115Z,4.60
2017-12-30T12:58:01.601Z,3.90
2017-12-30T13:00:28.978Z,2.30
2017-12-30T13:02:56.362Z,3.97
2017-12-30T13:05:23.746Z,4.43
2017-12-30T13:07:51.143Z,4.67
2017-12-30T13:10:18.538Z,4.33
2017-12-30T13:12:45.926Z,3.90
2017-12-30T13:15:13.307Z,4.90
2017-12-30T13:17:40.697Z,4.00
2017-12-30T13:20:09.050Z,3.53
2017-12-30T13:22:36.435Z,2.73
2017-12-30T13:25:03.826Z,3.30
2017-12-30T13:27:31.213Z,3.10
2017-12-30T13:29:58.606Z,3.73
2017-12-30T13:32:25.994Z,4.80
2017-12-30T13:34:53.373Z,4.53
2017-12-30T13:37:20.767Z,4.80
2017-12-30T13:39:48.166Z,3.00
2017-12-30T13:42:15.556Z,4.30
2017-12-30T13:44:42.930Z,3.70
2017-12-30T13:47:10.444Z,2.30
2017-12-30T13:49:37.819Z,2.50
2017-12-30T13:52:05.311Z,3.37
2017-12-30T13:54:32.693Z,3.30
2017-12-30T13:57:00.082Z,3.57
2017-12-30T13:59:27.468Z,3.40
2017-12-30T14:01:54.855Z,2.77
2017-12-30T14:04:22.234Z,3.00
2017-12-30T14:06:49.777Z,3.30
2017-12-30T14:09:17.142Z,3.50
2017-12-30T14:11:44.531Z,3.30
2017-12-30T14:14:11.911Z,3.80
2017-12-30T14:16:39.301Z,3.07
2017-12-30T14:19:06.686Z,3.67
2017-12-30T14:21:34.079Z,3.50
2017-12-30T14:24:01.462Z,3.50
2017-12-30T14:26:28.891Z,3.77
2017-12-30T14:28:56.287Z,5.23
2017-12-30T14:31:23.666Z,3.93
2017-12-30T14:33:51.057Z,4.10
2017-12-30T14:36:18.441Z,4.37
2017-12-30T14:38:45.830Z,4.00
2017-12-30T14:41:13.225Z,4.67
2017-12-30T14:43:40.602Z,4.33
2017-12-30T14:46:08.023Z,5.10
2017-12-30T14:48:35.402Z,5.00
2017-12-30T14:51:02.788Z,4.80
2017-12-30T14:53:30.174Z,6.17
2017-12-30T14:55:57.562Z,6.30
2017-12-30T14:58:24.957Z,6.33
2017-12-30T15:00:52.343Z,7.10
2017-12-30T15:03:19.730Z,6.37
2017-12-30T15:05:47.110Z,6.90
2017-12-30T15:08:14.498Z,8.60
2017-12-30T15:10:41.886Z,7.30
2017-12-30T15:13:09.273Z,9.03
2017-12-30T15:15:36.662Z,9.40
2017-12-30T15:18:04.061Z,10.33
2017-12-30T15:20:31.458Z,9.77
2017-12-30T15:22:58.872Z,9.47
2017-12-30T15:25:26.254Z,10.23
2017-12-30T15:27:53.650Z,11.80
2017-12-30T15:30:21.114Z,11.70
2017-12-30T15:32:48.535Z,11.20
2017-12-30T15:35:16.033Z,11.40
2017-12-30T15:37:43.422Z,12.73
2017-12-30T15:40:10.811Z,12.37
2017-12-30T15:42:38.206Z,14.90
2017-12-30T15:45:05.610Z,15.17
2017-12-30T15:47:33.001Z,17.10
2017-12-30T15:50:00.398Z,20.40
2017-12-30T15:52:27.794Z,19.80
2017-12-30T15:54:55.181Z,15.47
2017-12-30T15:57:22.579Z,18.83
2017-12-30T15:59:49.968Z,19.03
2017-12-30T16:02:17.399Z,16.57
2017-12-30T16:04:44.802Z,15.10
2017-12-30T16:07:12.194Z,12.60
2017-12-30T16:09:39.596Z,12.00
2017-12-30T16:12:07.051Z,9.97
2017-12-30T16:14:34.438Z,8.53
2017-12-30T16:17:01.829Z,9.37
2017-12-30T16:19:29.313Z,7.97
2017-12-30T16:21:56.724Z,7.10
2017-12-30T16:24:24.104Z,8.33
2017-12-30T16:26:51.510Z,7.60
2017-12-30T16:29:18.908Z,7.70
2017-12-30T16:31:46.305Z,7.33
2017-12-30T16:34:13.682Z,5.57
2017-12-30T16:36:41.111Z,7.70
2017-12-30T16:39:08.498Z,5.47
2017-12-30T16:41:35.919Z,5.13
2017-12-30T16:44:03.309Z,4.07
2017-12-30T16:46:30.698Z,3.73
2017-12-30T16:48:58.099Z,3.47
2017-12-30T16:51:25.486Z,3.23
2017-12-30T16:53:52.876Z,3.67
2017-12-30T16:56:20.263Z,3.40
2017-12-30T16:58:47.653Z,3.77
2017-12-30T17:01:15.035Z,3.60
2017-12-30T17:03:42.514Z,4.77
2017-12-30T17:06:09.917Z,3.40
2017-12-30T17:08:37.310Z,5.00
2017-12-30T17:11:04.704Z,4.90
2017-12-30T17:13:32.094Z,4.90
2017-12-30T17:15:59.489Z,5.13
2017-12-30T17:18:26.915Z,4.80
2017-12-30T17:20:54.288Z,6.87
2017-12-30T17:23:21.754Z,5.57
2017-12-30T17:25:49.215Z,6.10
2017-12-30T17:28:16.610Z,5.03
2017-12-30T17:30:44.008Z,5.97
2017-12-30T17:33:11.449Z,5.63
2017-12-30T17:35:38.846Z,6.47
2017-12-30T17:38:06.250Z,5.13
2017-12-30T17:40:33.635Z,6.30
2017-12-30T17:43:01.038Z,4.90
2017-12-30T17:45:28.426Z,6.27
2017-12-30T17:47:55.819Z,5.00
2017-12-30T17:50:23.210Z,5.93
2017-12-30T17:52:50.640Z,5.30
2017-12-30T17:55:18.124Z,5.27
2017-12-30T17:57:45.510Z,5.00
2017-12-30T18:00:12.901Z,4.27
2017-12-30T18:02:40.294Z,3.67
2017-12-30T18:05:07.689Z,4.30
2017-12-30T18:07:35.070Z,3.83
2017-12-30T18:10:02.473Z,4.60
2017-12-30T18:12:29.871Z,3.50
2017-12-30T18:14:57.299Z,4.33
2017-12-30T18:17:24.694Z,3.30
2017-12-30T18:19:52.090Z,4.50
2017-12-30T18:22:19.475Z,4.27
2017-12-30T18:24:46.874Z,4.50
2017-12-30T18:27:14.268Z,4.43
2017-12-30T18:29:41.706Z,4.20
2017-12-30T18:32:09.053Z,4.90
2017-12-30T18:34:36.452Z,3.40
2017-12-30T18:37:03.840Z,4.17
2017-12-30T18:39:31.230Z,4.10
2017-12-30T18:41:58.626Z,3.13
2017-12-30T18:44:26.022Z,2.80
2017-12-30T18:46:53.527Z,4.43
2017-12-30T18:49:20.930Z,3.90
2017-12-30T18:51:48.324Z,4.27
2017-12-30T18:54:15.725Z,3.90
2017-12-30T18:56:43.113Z,4.37
2017-12-30T18:59:10.504Z,4.50
2017-12-30T19:01:37.922Z,3.70
2017-12-30T19:04:06.276Z,6.10
2017-12-30T19:06:33.657Z,4.10
2017-12-30T19:09:01.057Z,4.70
2017-12-30T19:11:28.447Z,4.10
2017-12-30T19:13:55.938Z,3.57
2017-12-30T19:16:23.325Z,3.77
2017-12-30T19:18:50.763Z,4.30
2017-12-30T19:21:18.146Z,5.47
2017-12-30T19:23:45.552Z,5.03
2017-12-30T19:26:12.943Z,5.97
2017-12-30T19:28:40.346Z,5.77
2017-12-30T19:31:07.738Z,5.03
2017-12-30T19:33:35.136Z,5.57
2017-12-30T19:36:02.559Z,6.07
2017-12-30T19:38:29.942Z,5.73
2017-12-30T19:40:57.360Z,5.40
2017-12-30T19:43:24.755Z,6.20
2017-12-30T19:45:52.150Z,5.20
2017-12-30T19:48:19.538Z,5.60
2017-12-30T19:50:46.975Z,5.23
2017-12-30T19:53:14.371Z,5.53
2017-12-30T19:55:41.770Z,4.07
2017-12-30T19:58:09.150Z,5.37
2017-12-30T20:00:36.559Z,4.70
2017-12-30T20:03:03.946Z,6.60
2017-12-30T20:05:31.397Z,3.77
2017-12-30T20:07:58.786Z,5.60
2017-12-30T20:10:26.180Z,3.10
2017-12-30T20:12:53.567Z,3.30
2017-12-30T20:15:20.954Z,3.80
2017-12-30T20:17:48.344Z,2.90
2017-12-30T20:20:15.737Z,3.50
2017-12-30T20:22:43.114Z,3.63
2017-12-30T20:25:10.510Z,3.07
2017-12-30T20:27:37.892Z,3.50
2017-12-30T20:30:05.290Z,3.10
2017-12-30T20:32:32.674Z,3.60
2017-12-30T20:35:00.114Z,3.50
2017-12-30T20:37:27.506Z,3.20
2017-12-30T20:39:54.986Z,2.80
2017-12-30T20:42:22.370Z,3.90
2017-12-30T20:44:50.530Z,3.00
2017-12-30T20:47:17.918Z,2.90
2017-12-30T20:49:45.300Z,3.77
2017-12-30T20:52:12.780Z,3.00
2017-12-30T20:54:40.162Z,3.30
2017-12-30T20:57:07.550Z,4.20
2017-12-30T20:59:34.950Z,3.20
2017-12-30T21:02:02.351Z,3.30
2017-12-30T21:04:29.744Z,3.23
2017-12-30T21:06:57.134Z,4.87
2017-12-30T21:09:24.530Z,4.00
2017-12-30T21:11:51.923Z,3.50
2017-12-30T21:14:19.314Z,3.43
2017-12-30T21:16:46.706Z,4.03
2017-12-30T21:19:14.102Z,3.90
2017-12-30T21:21:41.494Z,3.10
2017-12-30T21:24:08.887Z,3.97
2017-12-30T21:26:36.271Z,2.47
2017-12-30T21:29:03.668Z,2.63
2017-12-30T21:31:31.054Z,4.00
2017-12-30T21:33:58.483Z,2.83
2017-12-30T21:36:25.958Z,4.27
2017-12-30T21:38:53.350Z,3.80
2017-12-30T21:41:20.730Z,3.40
2017-12-30T21:43:48.131Z,4.10
2017-12-30T21:46:15.518Z,6.90
2017-12-30T21:48:42.909Z,4.50
2017-12-30T21:51:10.304Z,3.23
2017-12-30T21:53:37.738Z,6.67
2017-12-30T21:56:05.136Z,4.10
2017-12-30T21:58:32.522Z,3.87
2017-12-30T22:01:00.690Z,4.07
2017-12-30T22:03:28.094Z,3.47
2017-12-30T22:05:55.486Z,2.57
2017-12-30T22:08:22.870Z,3.20
2017-12-30T22:10:50.265Z,3.20
2017-12-30T22:13:17.644Z,4.70
2017-12-30T22:15:45.044Z,3.20
2017-12-30T22:18:12.450Z,3.80
2017-12-30T22:20:39.895Z,2.80
2017-12-30T22:23:07.294Z,2.50
2017-12-30T22:25:34.699Z,2.63
2017-12-30T22:28:02.086Z,3.67
2017-12-30T22:30:29.477Z,2.60
2017-12-30T22:32:56.885Z,4.27
2017-12-30T22:35:24.274Z,3.03
2017-12-30T22:37:51.654Z,3.60
2017-12-30T22:40:19.051Z,2.87
2017-12-30T22:42:46.432Z,4.50
2017-12-30T22:45:13.826Z,3.27
2017-12-30T22:47:41.211Z,3.90
2017-12-30T22:50:08.605Z,3.57
2017-12-30T22:52:35.996Z,3.13
2017-12-30T22:55:03.411Z,3.00
2017-12-30T22:57:30.794Z,3.27
2017-12-30T22:59:58.183Z,2.50
2017-12-30T23:02:25.576Z,3.50
2017-12-30T23:04:52.966Z,5.10
2017-12-30T23:07:20.362Z,3.30
2017-12-30T23:09:47.767Z,2.77
2017-12-30T23:12:15.147Z,4.10
2017-12-30T23:14:42.541Z,3.87
2017-12-30T23:17:09.914Z,3.80
2017-12-30T23:19:37.309Z,4.40
2017-12-30T23:22:04.693Z,3.57
2017-12-30T23:24:32.098Z,4.37
2017-12-30T23:26:59.470Z,3.80
2017-12-30T23:29:26.873Z,3.80
2017-12-30T23:31:54.250Z,3.63
2017-12-30T23:34:21.655Z,4.33
2017-12-30T23:36:49.060Z,3.70
2017-12-30T23:39:16.449Z,5.50
2017-12-30T23:41:43.829Z,4.47
2017-12-30T23:44:11.223Z,3.80
2017-12-30T23:46:38.617Z,6.20
2017-12-30T23:49:06.037Z,5.03
2017-12-30T23:51:33.452Z,4.97
2017-12-30T23:54:00.799Z,5.20
2017-12-30T23:56:28.180Z,5.10
2017-12-30T23:58:55.566Z,4.80
